Time;durP1;ratioP1;P1;durP2;ratioP2;P2;SDS_P1;SDS_P2;PMS_P1;PMS_P2;Temp;Humidity;BMP_temperature;BMP_pressure;BME280_temperature;BME280_humidity;BME280_pressure;Samples;Min_cycle;Max_cycle;Signal;HPM_P1;HPM_P2
2023/01/02 00:00:54;;;;;;;17.40;10.25;;;;;;;9.77;72.34;100809.02;1823812;78;25538;-44
2023/01/02 00:03:22;;;;;;;19.75;9.55;;;;;;;9.73;72.61;100809.59;1823817;78;26278;-46
2023/01/02 00:05:48;;;;;;;19.75;9.38;;;;;;;9.71;72.59;100816.39;1823680;78;25593;-48
2023/01/02 00:08:18;;;;;;;20.72;10.18;;;;;;;9.68;72.91;100815.06;1823889;78;25372;-48
2023/01/02 00:10:44;;;;;;;23.22;10.23;;;;;;;9.66;73.10;100814.55;1823896;78;25598;-49
2023/01/02 00:13:11;;;;;;;21.75;9.83;;;;;;;9.66;73.10;100815.11;1823792;78;25375;-47
2023/01/02 00:15:38;;;;;;;21.60;9.93;;;;;;;9.65;73.26;100819.72;1823791;77;28144;-47
2023/01/02 00:18:04;;;;;;;21.35;9.90;;;;;;;9.64;73.37;100815.95;1827590;78;25335;-47
2023/01/02 00:20:32;;;;;;;20.23;10.15;;;;;;;9.65;73.41;100810.78;1829827;78;25396;-48
2023/01/02 00:22:58;;;;;;;86.47;79.97;;;;;;;9.66;73.43;100809.15;1829844;77;25844;-48
2023/01/02 00:25:25;;;;;;;86.92;80.38;;;;;;;9.64;73.51;100797.05;1829885;78;25582;-48
2023/01/02 00:27:51;;;;;;;87.02;79.92;;;;;;;9.65;73.71;100798.11;1829827;77;29684;-49
2023/01/02 00:30:17;;;;;;;87.40;80.50;;;;;;;9.65;73.53;100792.70;1829748;78;25406;-47
2023/01/02 00:32:44;;;;;;;87.27;80.30;;;;;;;9.66;73.45;100798.91;1829856;77;25600;-48
2023/01/02 00:35:10;;;;;;;85.40;78.57;;;;;;;9.66;73.59;100793.50;1829798;77;25404;-47
2023/01/02 00:37:37;;;;;;;87.90;81.10;;;;;;;9.67;73.54;100795.91;1829873;77;25414;-49
2023/01/02 00:40:06;;;;;;;86.92;80.00;;;;;;;9.68;73.58;100798.85;1829790;77;27641;-47
2023/01/02 00:42:32;;;;;;;22.07;9.55;;;;;;;9.68;73.52;100802.11;1829908;78;25349;-45
2023/01/02 00:44:58;;;;;;;88.22;81.22;;;;;;;9.70;73.52;100808.02;1829808;78;25527;-45
2023/01/02 00:47:24;;;;;;;88.95;82.20;;;;;;;9.69;73.59;100806.43;1829666;78;25391;-45
2023/01/02 00:49:51;;;;;;;87.80;80.60;;;;;;;9.67;73.66;100808.59;1828375;77;25757;-45
2023/01/02 00:52:17;;;;;;;88.52;81.63;;;;;;;9.65;73.66;100810.27;1828393;77;27883;-45
2023/01/02 00:54:43;;;;;;;88.35;81.40;;;;;;;9.65;73.72;100814.31;1829649;77;25438;-46
2023/01/02 00:57:09;;;;;;;88.33;81.10;;;;;;;9.63;73.77;100815.12;1829785;78;25580;-45
2023/01/02 00:59:36;;;;;;;89.58;82.33;;;;;;;9.63;73.89;100814.33;1829804;77;25923;-45
2023/01/02 01:02:02;;;;;;;87.88;81.28;;;;;;;9.64;73.92;100816.75;1829870;77;25565;-44
2023/01/02 01:04:34;;;;;;;90.32;83.45;;;;;;;9.65;74.03;100821.06;1829849;77;27799;-46
2023/01/02 01:07:00;;;;;;;95.40;88.00;;;;;;;9.63;74.08;100819.73;1829772;78;25439;-45
2023/01/02 01:09:27;;;;;;;89.77;82.70;;;;;;;9.62;74.14;100817.59;1829835;77;25430;-45
2023/01/02 01:11:54;;;;;;;88.17;81.08;;;;;;;9.62;74.09;100812.71;1813585;78;26229;-49
2023/01/02 01:14:20;;;;;;;87.37;80.25;;;;;;;9.61;74.07;100818.67;1829800;77;25503;-48
2023/01/02 01:16:47;;;;;;;24.18;12.05;;;;;;;9.62;74.27;100820.81;1829693;77;25894;-46
2023/01/02 01:19:13;;;;;;;21.40;11.05;;;;;;;9.66;74.25;100828.61;1823602;78;27375;-51
2023/01/02 01:21:39;;;;;;;21.82;11.97;;;;;;;;;;1823757;78;25379;-48
2023/01/02 01:24:06;;;;;;;20.90;11.20;;;;;;;9.67;74.31;100826.15;1823678;78;34884;-47
2023/01/02 01:26:32;;;;;;;26.02;12.45;;;;;;;9.67;74.42;100815.34;1823717;78;25409;-46
2023/01/02 01:28:59;;;;;;;19.15;11.70;;;;;;;9.67;74.28;100814.82;1823714;78;27447;-49
2023/01/02 01:31:25;;;;;;;19.02;9.98;;;;;;;9.67;74.41;100817.52;1823580;78;25804;-47
2023/01/02 01:33:51;;;;;;;21.40;10.45;;;;;;;9.67;74.37;100810.77;1823697;78;25592;-47
2023/01/02 01:36:22;;;;;;;18.90;9.55;;;;;;;9.68;74.44;100813.71;1823634;78;25537;-47
2023/01/02 01:38:50;;;;;;;22.15;10.20;;;;;;;9.68;74.53;100811.01;1823711;78;25599;-46
2023/01/02 01:41:20;;;;;;;20.02;9.93;;;;;;;9.68;74.44;100806.16;1803069;78;28016;-48
2023/01/02 01:43:54;;;;;;;20.97;9.03;;;;;;;9.68;74.49;100808.31;1823646;78;25387;-47
2023/01/02 01:46:38;;;;;;;20.72;9.80;;;;;;;9.70;74.42;100805.31;1801683;78;25365;-48
2023/01/02 01:49:21;;;;;;;22.20;10.48;;;;;;;9.68;74.44;100802.91;1823765;78;25638;-47
2023/01/02 01:51:58;;;;;;;21.15;9.85;;;;;;;9.70;74.51;100799.91;1818995;78;25455;-46
2023/01/02 01:54:35;;;;;;;21.48;10.18;;;;;;;9.70;74.59;100793.16;1823488;78;27562;-47
2023/01/02 01:57:09;;;;;;;15.48;9.28;;;;;;;9.69;74.49;100784.27;1823592;78;25368;-46
2023/01/02 01:59:36;;;;;;;18.60;9.98;;;;;;;9.71;74.57;100778.58;1823598;78;25554;-48
2023/01/02 02:02:02;;;;;;;20.25;9.80;;;;;;;9.69;74.62;100780.77;1823630;78;25614;-48
2023/01/02 02:04:29;;;;;;;23.95;11.25;;;;;;;9.68;74.56;100780.50;1823700;78;25632;-47
2023/01/02 02:06:55;;;;;;;20.10;10.70;;;;;;;9.66;74.67;100779.99;1803181;78;27430;-48
2023/01/02 02:09:33;;;;;;;17.07;10.45;;;;;;;9.64;74.73;100777.58;1823552;78;25885;-48
2023/01/02 02:11:59;;;;;;;20.60;9.75;;;;;;;9.64;74.80;100765.98;1803137;78;25405;-46
2023/01/02 02:14:25;;;;;;;21.73;11.15;;;;;;;9.62;74.91;100761.39;1823660;78;27350;-47
2023/01/02 02:17:00;;;;;;;25.35;10.25;;;;;;;9.62;74.98;100761.39;1823754;78;25357;-46
2023/01/02 02:19:43;;;;;;;22.95;11.53;;;;;;;9.60;74.90;100748.17;1829460;78;27486;-47
2023/01/02 02:22:50;;;;;;;19.75;10.53;;;;;;;9.60;74.95;100761.68;1829688;78;25593;-47
2023/01/02 02:25:56;;;;;;;20.92;10.30;;;;;;;9.60;74.94;100765.73;1829740;78;25556;-46
2023/01/02 02:28:34;;;;;;;20.92;10.43;;;;;;;9.59;75.04;100766.05;1829823;78;25541;-47
2023/01/02 02:31:43;;;;;;;19.90;9.55;;;;;;;9.59;75.14;100764.14;1813549;78;25387;-46
2023/01/02 02:34:36;;;;;;;23.55;10.25;;;;;;;9.58;75.20;100761.17;1829716;78;27546;-46
2023/01/02 02:37:20;;;;;;;19.87;10.00;;;;;;;9.60;75.33;100770.34;1829447;77;27309;-46
2023/01/02 02:39:57;;;;;;;20.88;10.00;;;;;;;9.60;75.45;100771.69;1829738;77;25595;-49
2023/01/02 02:42:41;;;;;;;19.98;10.15;;;;;;;9.60;75.32;100777.89;1828787;77;25541;-48
2023/01/02 02:45:22;;;;;;;20.15;10.43;;;;;;;9.59;75.39;100763.34;1829770;78;25506;-48
2023/01/02 02:47:59;;;;;;;20.37;9.53;;;;;;;9.58;75.36;100767.92;1813560;78;27536;-47
2023/01/02 02:50:43;;;;;;;16.15;9.95;;;;;;;9.58;75.41;100775.23;1752581;81;25572;-46
2023/01/02 02:53:15;;;;;;;19.48;9.83;;;;;;;9.56;75.28;100771.47;1716857;83;25692;-48
2023/01/02 02:55:47;;;;;;;19.32;9.90;;;;;;;9.57;75.44;100774.44;1699063;84;25533;-48
2023/01/02 02:58:15;;;;;;;21.12;9.95;;;;;;;9.57;75.29;100772.27;1699188;84;25512;-48
2023/01/02 03:00:42;;;;;;;21.17;10.32;;;;;;;9.57;75.30;100784.41;1699159;84;27604;-51
2023/01/02 03:03:21;;;;;;;18.65;9.45;;;;;;;9.57;75.31;100784.41;1699021;84;32885;-48
2023/01/02 03:06:19;;;;;;;22.82;10.88;;;;;;;9.57;75.29;100780.36;1699248;84;25519;-48
2023/01/02 03:09:07;;;;;;;22.32;9.65;;;;;;;9.54;75.35;100779.86;1694190;84;25727;-48
2023/01/02 03:11:59;;;;;;;22.73;10.07;;;;;;;9.55;75.34;100779.30;1691925;84;25832;-47
2023/01/02 03:14:47;;;;;;;19.65;10.50;;;;;;;9.53;75.39;100781.50;1699318;84;27504;-48
2023/01/02 03:17:36;;;;;;;17.30;9.80;;;;;;;9.52;75.42;100778.56;1698627;84;25812;-46
2023/01/02 03:20:11;;;;;;;26.10;11.03;;;;;;;9.52;75.56;100774.51;1675661;85;25659;-46
2023/01/02 03:22:45;;;;;;;20.50;10.68;;;;;;;9.51;75.57;100764.23;1675720;85;26280;-46
2023/01/02 03:25:14;;;;;;;22.02;10.72;;;;;;;9.48;75.70;100762.13;1675620;85;25528;-46
2023/01/02 03:27:44;;;;;;;23.83;10.58;;;;;;;9.44;75.68;100764.34;1713629;81;27531;-46
2023/01/02 03:30:19;;;;;;;20.60;11.25;;;;;;;9.38;75.88;100773.06;1749951;82;25821;-46
2023/01/02 03:33:02;;;;;;;23.38;11.08;;;;;;;9.36;75.90;100777.92;1749981;82;25597;-46
2023/01/02 03:35:38;;;;;;;23.87;10.40;;;;;;;9.34;75.95;100778.77;1749719;82;25590;-46
2023/01/02 03:38:09;;;;;;;25.15;10.93;;;;;;;9.31;76.03;100777.46;1749507;82;25491;-47
2023/01/02 03:40:44;;;;;;;23.30;10.48;;;;;;;9.32;76.09;100779.05;1749977;82;27686;-46
2023/01/02 03:43:21;;;;;;;25.80;10.03;;;;;;;9.29;76.27;100768.82;1724700;82;26469;-48
2023/01/02 03:45:56;;;;;;;23.65;10.68;;;;;;;9.28;76.18;100778.03;1748423;82;25479;-46
2023/01/02 03:48:34;;;;;;;23.00;10.65;;;;;;;9.27;76.26;100773.71;1749048;82;25571;-48
2023/01/02 03:51:03;;;;;;;22.32;10.25;;;;;;;9.26;76.20;100768.07;1749934;82;25496;-47
2023/01/02 03:53:32;;;;;;;18.62;9.93;;;;;;;9.26;76.34;100759.98;1696446;82;27798;-46
2023/01/02 03:56:25;;;;;;;22.07;10.88;;;;;;;9.25;76.35;100758.91;1753529;80;25590;-45
2023/01/02 03:59:06;;;;;;;26.45;10.88;;;;;;;9.25;76.37;100769.16;1776741;80;25379;-47
2023/01/02 04:01:59;;;;;;;20.92;10.05;;;;;;;9.24;76.39;100776.98;1750215;80;25654;-49
2023/01/02 04:04:47;;;;;;;23.83;9.90;;;;;;;9.25;76.38;100778.60;1776694;80;25457;-46
2023/01/02 04:07:19;;;;;;;20.82;10.23;;;;;;;9.24;76.38;100774.84;1776665;80;27534;-47
2023/01/02 04:09:49;;;;;;;20.05;10.32;;;;;;;9.23;76.44;100767.30;1707908;84;25415;-46
2023/01/02 04:12:19;;;;;;;22.87;10.98;;;;;;;9.22;76.49;100762.98;1737252;82;25624;-46
2023/01/02 04:14:50;;;;;;;18.65;10.68;;;;;;;9.22;76.50;100768.92;1737130;82;26220;-45
2023/01/02 04:17:19;;;;;;;20.68;10.32;;;;;;;9.20;76.58;100767.86;1737220;82;25429;-48
2023/01/02 04:19:54;;;;;;;18.30;9.68;;;;;;;9.19;76.64;100762.20;1778495;80;27567;-48
2023/01/02 04:22:28;;;;;;;21.77;11.35;;;;;;;9.19;76.70;100779.73;1784207;80;25973;-48
2023/01/02 04:25:12;;;;;;;21.87;10.18;;;;;;;9.19;76.63;100773.55;1783085;80;25455;-47
2023/01/02 04:27:53;;;;;;;17.87;9.90;;;;;;;9.19;76.63;100768.15;1785208;80;25564;-46
2023/01/02 04:30:20;;;;;;;25.55;10.32;;;;;;;9.19;76.61;100781.64;1785256;80;25570;-48
2023/01/02 04:32:48;;;;;;;19.15;9.98;;;;;;;9.20;76.68;100785.41;1762037;81;27559;-48
2023/01/02 04:35:19;;;;;;;20.88;10.25;;;;;;;9.21;76.64;100788.91;1776259;80;25567;-46
2023/01/02 04:37:48;;;;;;;23.75;11.57;;;;;;;9.20;76.68;100790.80;1762149;81;25462;-47
2023/01/02 04:40:28;;;;;;;20.60;10.43;;;;;;;9.19;76.73;100791.89;1752184;80;25578;-48
2023/01/02 04:42:56;;;;;;;21.12;10.18;;;;;;;9.16;76.69;100794.62;1736281;81;25428;-48
2023/01/02 04:45:22;;;;;;;21.70;10.40;;;;;;;9.17;76.94;100796.77;1776324;80;28254;-49
2023/01/02 04:47:50;;;;;;;21.57;10.58;;;;;;;9.16;76.97;100797.88;1762044;81;25563;-50
2023/01/02 04:50:18;;;;;;;23.62;10.55;;;;;;;9.15;77.19;100794.91;1776332;80;25420;-49
2023/01/02 04:52:44;;;;;;;21.60;10.35;;;;;;;9.14;77.14;100795.47;1757956;81;25637;-47
2023/01/02 04:55:10;;;;;;;25.27;10.18;;;;;;;9.12;77.45;100784.12;1776370;80;25445;-48
2023/01/02 04:57:37;;;;;;;21.57;11.00;;;;;;;9.10;77.50;100783.62;1762134;81;27593;-46
2023/01/02 05:00:07;;;;;;;19.62;10.20;;;;;;;9.06;77.71;100766.41;1752040;80;26112;-48
2023/01/02 05:02:38;;;;;;;23.35;11.22;;;;;;;9.02;78.01;100767.26;1762286;81;25550;-47
2023/01/02 05:05:07;;;;;;;24.02;11.18;;;;;;;8.98;78.17;100772.42;1776270;80;26106;-50
2023/01/02 05:07:36;;;;;;;19.23;10.13;;;;;;;8.94;78.42;100776.24;1758024;81;25454;-46
2023/01/02 05:10:05;;;;;;;22.30;9.43;;;;;;;8.90;78.65;100773.05;1776568;80;27527;-47
2023/01/02 05:12:38;;;;;;;20.33;9.77;;;;;;;8.87;78.86;100764.17;1762320;81;25523;-47
2023/01/02 05:15:07;;;;;;;24.37;10.70;;;;;;;8.81;79.10;100746.45;1793486;80;25542;-47
2023/01/02 05:17:40;;;;;;;23.32;11.18;;;;;;;8.76;79.32;100737.30;1776384;80;25545;-48
2023/01/02 05:20:11;;;;;;;23.38;10.90;;;;;;;8.73;79.62;100744.61;1757039;80;25434;-48
2023/01/02 05:25:33;;;;;;;18.67;10.50;;;;;;;8.68;80.27;100744.66;1745508;80;25733;-48
2023/01/02 05:28:02;;;;;;;21.55;10.70;;;;;;;8.64;80.47;100741.48;1756247;81;25540;-47
2023/01/02 05:30:29;;;;;;;23.67;11.67;;;;;;;8.60;80.57;100731.82;1776526;80;25744;-47
2023/01/02 05:32:55;;;;;;;23.27;11.85;;;;;;;8.58;81.15;100722.66;1756208;81;25556;-46
2023/01/02 05:35:21;;;;;;;22.25;10.72;;;;;;;8.53;81.55;100717.84;1776301;80;27472;-48
2023/01/02 05:37:47;;;;;;;20.72;10.90;;;;;;;8.47;81.60;100714.41;1745544;80;25618;-46
2023/01/02 05:40:14;;;;;;;24.12;11.12;;;;;;;8.41;81.96;100709.58;1776307;80;25623;-46
2023/01/02 05:42:40;;;;;;;24.43;11.60;;;;;;;8.36;81.97;100705.59;1702761;81;25517;-47
2023/01/02 05:45:09;;;;;;;21.27;10.40;;;;;;;8.34;82.23;100701.55;1776318;80;25696;-48
2023/01/02 05:47:35;;;;;;;19.48;9.95;;;;;;;8.30;82.21;100705.36;1776443;79;27517;-48
2023/01/02 05:50:05;;;;;;;25.45;10.68;;;;;;;8.28;82.41;100695.97;1776182;80;26119;-49
2023/01/02 05:52:31;;;;;;;23.02;11.38;;;;;;;8.25;82.87;100697.33;1776440;80;25653;-50
2023/01/02 05:54:57;;;;;;;22.32;10.53;;;;;;;8.23;82.80;100700.30;1776267;80;25513;-50
2023/01/02 05:57:24;;;;;;;19.12;10.58;;;;;;;8.22;82.84;100691.97;1756318;81;25679;-49
2023/01/02 05:59:50;;;;;;;18.65;9.78;;;;;;;8.20;82.82;100694.13;1776284;80;27539;-47
2023/01/02 06:02:16;;;;;;;20.02;10.48;;;;;;;8.18;83.12;100689.56;1776199;80;25599;-48
2023/01/02 06:04:42;;;;;;;19.82;10.30;;;;;;;8.16;82.89;100686.91;1776281;80;25401;-47
2023/01/02 06:07:08;;;;;;;21.40;9.75;;;;;;;8.13;83.05;100694.20;1776206;80;25598;-48
2023/01/02 06:09:34;;;;;;;18.30;9.95;;;;;;;8.11;83.14;100691.79;1756304;81;25525;-48
2023/01/02 06:12:00;;;;;;;18.55;10.60;;;;;;;8.10;82.95;100706.33;1787417;80;27509;-48
2023/01/02 06:14:27;;;;;;;20.30;9.75;;;;;;;8.09;83.10;100706.09;1770223;81;25551;-48
2023/01/02 06:16:53;;;;;;;20.60;9.43;;;;;;;8.05;83.04;100702.33;1756287;81;25572;-48
2023/01/02 06:19:19;;;;;;;18.02;9.35;;;;;;;8.01;83.44;100703.44;1787169;80;25446;-48
2023/01/02 06:21:45;;;;;;;30.60;10.55;;;;;;;7.99;83.07;100708.31;1776261;80;25558;-48
2023/01/02 06:24:12;;;;;;;19.05;9.73;;;;;;;7.98;82.88;100705.34;1756184;81;27519;-48
2023/01/02 06:26:38;;;;;;;21.95;10.53;;;;;;;7.96;83.10;100714.25;1770226;80;25618;-49
2023/01/02 06:29:05;;;;;;;20.72;10.85;;;;;;;7.93;83.21;100701.89;1756169;81;25523;-48
2023/01/02 06:31:32;;;;;;;17.80;9.58;;;;;;;7.93;83.05;100708.63;1776230;80;25396;-46
2023/01/02 06:34:02;;;;;;;19.15;10.40;;;;;;;7.88;83.00;100703.28;1776307;80;25558;-50
2023/01/02 06:36:32;;;;;;;22.50;10.60;;;;;;;7.87;82.99;100694.41;1776290;80;28432;-48
2023/01/02 06:38:59;;;;;;;21.37;10.10;;;;;;;7.85;82.95;100697.92;1756263;81;25379;-47
2023/01/02 06:41:26;;;;;;;20.50;10.43;;;;;;;7.80;83.17;100701.45;1776429;80;25617;-47
2023/01/02 06:43:53;;;;;;;18.80;8.85;;;;;;;7.76;83.36;100691.52;1776369;80;25568;-48
2023/01/02 06:46:23;;;;;;;19.87;9.98;;;;;;;7.73;83.22;100692.89;1776603;80;25609;-48
2023/01/02 06:48:51;;;;;;;;;;;;;;;7.69;83.40;100697.21;1758923;81;27507;-48
2023/01/02 06:51:23;;;;;;;18.37;10.03;;;;;;;7.66;83.29;100693.72;1770358;81;25233;-48
2023/01/02 06:53:50;;;;;;;22.17;9.80;;;;;;;7.64;83.62;100697.24;1756310;81;25640;-47
2023/01/02 06:56:21;;;;;;;18.92;9.40;;;;;;;7.61;83.68;100699.97;1776499;80;26443;-48
2023/01/02 06:58:49;;;;;;;19.60;10.15;;;;;;;7.58;83.95;100697.83;1776449;80;25607;-47
2023/01/02 07:01:20;;;;;;;16.00;8.63;;;;;;;7.57;84.10;100685.44;1776398;80;28617;-48
2023/01/02 07:03:48;;;;;;;17.65;9.18;;;;;;;7.55;84.34;100690.30;1776351;80;25821;-47
2023/01/02 07:06:19;;;;;;;19.67;9.75;;;;;;;7.56;84.12;100683.84;1776416;80;25567;-47
2023/01/02 07:08:47;;;;;;;16.87;8.78;;;;;;;7.57;84.00;100680.05;1756355;81;25504;-46
2023/01/02 07:11:23;;;;;;;19.87;10.20;;;;;;;7.57;84.05;100680.05;1756648;80;25567;-47
2023/01/02 07:13:53;;;;;;;18.52;9.45;;;;;;;7.60;84.30;100684.09;1754745;81;27543;-45
2023/01/02 07:16:22;;;;;;;18.55;9.50;;;;;;;7.60;84.46;100686.78;1776290;80;25432;-46
2023/01/02 07:18:52;;;;;;;13.03;6.25;;;;;;;7.61;84.44;100687.03;1777239;80;25573;-46
2023/01/02 07:21:20;;;;;;;21.37;8.93;;;;;;;7.63;84.56;100692.96;1762048;81;25593;-47
2023/01/02 07:23:49;;;;;;;17.82;9.35;;;;;;;7.67;84.55;100689.41;1793448;80;25520;-47
2023/01/02 07:26:17;;;;;;;20.45;9.70;;;;;;;7.71;84.48;100682.13;1793276;80;27519;-46
2023/01/02 07:28:46;;;;;;;19.42;8.73;;;;;;;7.75;84.61;100670.52;1761869;81;25599;-46
2023/01/02 07:31:17;;;;;;;16.67;9.65;;;;;;;7.80;84.60;100669.13;1793356;80;25614;-46
2023/01/02 07:33:45;;;;;;;16.97;9.35;;;;;;;7.84;84.63;100662.09;1793334;80;25478;-49
2023/01/02 07:36:17;;;;;;;18.52;9.80;;;;;;;7.90;84.39;100659.36;1762000;81;25471;-45
2023/01/02 07:38:51;;;;;;;19.85;9.28;;;;;;;7.96;84.44;100660.94;1793277;80;27482;-48
2023/01/02 07:41:23;;;;;;;16.75;9.00;;;;;;;8.00;84.20;100659.27;1772513;80;25453;-47
2023/01/02 07:43:53;;;;;;;14.98;8.83;;;;;;;8.06;84.39;100650.07;1762004;81;25621;-50
2023/01/02 07:46:20;;;;;;;23.38;9.88;;;;;;;8.10;84.04;100655.14;1793318;80;26087;-47
2023/01/02 07:48:49;;;;;;;23.18;11.03;;;;;;;8.15;83.94;100664.53;1773415;80;25655;-50
2023/01/02 07:51:18;;;;;;;19.65;9.25;;;;;;;8.18;83.85;100662.62;1762194;81;27587;-47
2023/01/02 07:53:45;;;;;;;17.27;9.05;;;;;;;8.20;83.75;100652.35;1773328;80;25563;-47
2023/01/02 07:56:12;;;;;;;18.55;8.58;;;;;;;8.25;83.58;100656.11;1761410;81;25655;-47
2023/01/02 07:58:39;;;;;;;21.77;9.50;;;;;;;8.28;83.36;100651.50;1792829;80;25994;-48
2023/01/02 08:01:11;;;;;;;21.93;9.68;;;;;;;8.29;83.22;100644.48;1793284;80;25641;-47
2023/01/02 08:03:39;;;;;;;20.95;9.88;;;;;;;8.31;83.19;100638.78;1761985;81;27568;-48
2023/01/02 08:06:12;;;;;;;22.40;10.28;;;;;;;8.32;83.11;100633.11;1793163;80;25410;-49
2023/01/02 08:08:39;;;;;;;19.90;9.15;;;;;;;8.36;83.04;100640.07;1793309;80;25589;-47
2023/01/02 08:11:13;;;;;;;22.95;10.25;;;;;;;8.39;83.01;100638.98;1761898;81;26017;-48
2023/01/02 08:13:41;;;;;;;23.12;10.45;;;;;;;8.41;82.86;100640.02;1793363;80;25626;-48
2023/01/02 08:16:14;;;;;;;21.83;9.60;;;;;;;8.46;82.79;100640.55;1762169;81;28044;-46
2023/01/02 08:18:41;;;;;;;23.38;9.68;;;;;;;8.50;82.74;100650.48;1793213;80;25554;-48
2023/01/02 08:21:10;;;;;;;21.40;10.55;;;;;;;8.53;82.66;100634.27;1757007;80;25560;-48
2023/01/02 08:23:37;;;;;;;18.57;9.43;;;;;;;8.57;82.57;100642.84;1776320;80;26158;-47
2023/01/02 08:26:08;;;;;;;16.27;9.03;;;;;;;8.66;82.41;100642.22;1745618;80;25419;-48
2023/01/02 08:28:38;;;;;;;23.15;11.28;;;;;;;8.71;82.34;100646.21;1776425;80;27564;-48
2023/01/02 08:31:16;;;;;;;19.35;11.43;;;;;;;8.78;82.19;100653.41;1776348;80;25749;-49
2023/01/02 08:33:44;;;;;;;22.95;11.12;;;;;;;8.86;81.76;100658.72;1756256;81;25431;-51
2023/01/02 08:36:13;;;;;;;22.15;10.20;;;;;;;8.90;81.55;100651.09;1745791;80;25768;-49
2023/01/02 08:38:42;;;;;;;20.82;9.65;;;;;;;8.94;81.54;100647.30;1756260;81;25529;-48
2023/01/02 08:41:08;;;;;;;19.50;9.68;;;;;;;8.99;81.33;100652.62;1770295;81;27482;-47
2023/01/02 08:43:36;;;;;;;19.48;9.38;;;;;;;9.03;81.17;100659.59;1756134;81;26260;-47
2023/01/02 08:46:06;;;;;;;23.30;11.35;;;;;;;9.05;81.02;100664.95;1787345;80;25541;-48
2023/01/02 08:48:35;;;;;;;21.00;10.13;;;;;;;9.06;80.84;100655.77;1776299;80;25400;-48
2023/01/02 08:51:04;;;;;;;20.43;10.58;;;;;;;9.09;80.79;100651.67;1776494;80;25402;-47
2023/01/02 08:53:31;;;;;;;22.05;10.90;;;;;;;9.12;80.69;100649.75;1756402;81;30039;-47
2023/01/02 08:56:29;;;;;;;20.17;10.28;;;;;;;9.19;80.70;100642.65;1776262;80;25723;-49
2023/01/02 08:59:01;;;;;;;21.25;10.85;;;;;;;9.23;80.61;100639.61;1776347;80;25569;-48
2023/01/02 09:01:31;;;;;;;18.52;9.90;;;;;;;9.31;80.13;100642.48;1776275;80;25524;-46
2023/01/02 09:03:58;;;;;;;21.85;10.05;;;;;;;9.39;80.33;100639.66;1776328;80;25609;-48
2023/01/02 09:06:29;;;;;;;22.45;11.00;;;;;;;9.52;80.26;100640.28;1776327;80;27473;-46
2023/01/02 09:08:59;;;;;;;19.60;10.00;;;;;;;9.72;80.56;100628.89;1776340;80;25902;-47
2023/01/02 09:11:30;;;;;;;;;;;;;;;9.94;79.77;100639.63;1748331;80;25502;-48
2023/01/02 09:14:00;;;;;;;19.62;9.43;;;;;;;10.00;78.57;100628.44;1776361;80;25758;-50
2023/01/02 09:16:27;;;;;;;;;;;;;;;10.01;78.30;100621.95;1779005;80;25397;-48
2023/01/02 09:18:59;;;;;;;23.87;10.65;;;;;;;10.02;78.03;100619.48;1776350;79;27527;-48
2023/01/02 09:21:26;;;;;;;20.90;11.05;;;;;;;10.03;78.00;100621.09;1776023;80;25605;-49
2023/01/02 09:23:54;;;;;;;21.10;9.98;;;;;;;10.03;77.50;100612.19;1756274;81;25422;-51
2023/01/02 09:26:21;;;;;;;21.27;10.72;;;;;;;10.00;77.08;100614.92;1742394;81;25592;-46
2023/01/02 09:28:48;;;;;;;22.55;10.80;;;;;;;10.00;76.79;100619.54;1756225;81;25450;-48
2023/01/02 09:31:17;;;;;;;20.12;10.78;;;;;;;10.03;77.42;100614.34;1770274;81;27511;-48
2023/01/02 09:33:46;;;;;;;18.15;10.88;;;;;;;10.21;77.76;100604.54;1756286;81;25669;-48
2023/01/02 09:36:16;;;;;;;;;;;;;;;10.51;77.90;100612.42;1772925;81;25564;-52
2023/01/02 09:38:43;;;;;;;;;;;;;;;10.86;77.39;100617.64;1784514;80;25499;-48
2023/01/02 09:41:33;;;;;;;20.77;10.32;;;;;;;11.20;76.24;100598.78;1753138;80;25612;-46
2023/01/02 09:44:19;;;;;;;24.27;10.80;;;;;;;11.67;77.34;100599.30;1756273;81;27545;-47
2023/01/02 09:46:59;;;;;;;16.70;10.32;;;;;;;12.20;76.01;100627.55;1776272;80;25556;-49
2023/01/02 09:49:31;;;;;;;21.93;10.80;;;;;;;12.45;73.19;100611.72;1776554;80;25398;-47
2023/01/02 09:51:58;;;;;;;18.65;10.80;;;;;;;12.52;71.66;100604.70;1776273;79;25508;-48
2023/01/02 09:54:32;;;;;;;20.10;11.30;;;;;;;12.69;71.57;100608.59;1776401;80;25568;-48
2023/01/02 09:57:30;;;;;;;21.45;10.88;;;;;;;12.82;70.35;100609.03;1756238;81;27480;-49
2023/01/02 10:00:23;;;;;;;21.57;10.10;;;;;;;12.95;70.20;100605.92;1776373;80;25683;-47
2023/01/02 10:03:24;;;;;;;22.45;10.78;;;;;;;13.19;69.67;100591.09;1756287;81;25410;-49
2023/01/02 10:06:11;;;;;;;21.00;10.63;;;;;;;13.59;70.41;100596.40;1776366;80;26051;-50
2023/01/02 10:09:09;;;;;;;20.55;10.43;;;;;;;13.87;68.26;100587.30;1776311;80;25552;-48
2023/01/02 10:11:53;;;;;;;22.50;11.90;;;;;;;13.80;66.11;100585.07;1776269;80;29744;-49
2023/01/02 10:14:52;;;;;;;18.80;10.98;;;;;;;13.75;66.87;100571.65;1774948;80;26036;-48
2023/01/02 10:17:21;;;;;;;21.97;11.03;;;;;;;13.80;67.17;100577.48;1776397;80;25464;-48
2023/01/02 10:20:01;;;;;;;19.87;10.38;;;;;;;13.75;66.01;100566.21;1776862;79;25944;-49
2023/01/02 10:22:38;;;;;;;18.55;10.63;;;;;;;13.71;66.10;100579.44;1736062;81;25831;-50
2023/01/02 10:25:11;;;;;;;18.65;10.68;;;;;;;13.76;66.56;100584.70;1793240;80;27477;-48
2023/01/02 10:27:43;;;;;;;24.07;10.53;;;;;;;13.70;65.36;100577.25;1761881;81;25455;-49
2023/01/02 10:30:24;;;;;;;22.90;11.50;;;;;;;13.49;64.44;100588.01;1747162;80;25414;-49
2023/01/02 10:33:05;;;;;;;19.73;10.43;;;;;;;13.26;64.17;100580.55;1761910;81;26559;-45
2023/01/02 10:35:47;;;;;;;21.70;11.78;;;;;;;12.98;65.54;100571.36;1763427;80;25588;-47
2023/01/02 10:38:17;;;;;;;23.70;10.95;;;;;;;12.80;66.10;100576.52;1761847;81;27487;-47
2023/01/02 10:40:47;;;;;;;23.15;12.15;;;;;;;12.59;65.77;100567.62;1793068;80;27347;-47
2023/01/02 10:43:17;;;;;;;21.93;12.60;;;;;;;12.36;65.83;100570.17;1761880;81;25608;-49
2023/01/02 10:45:44;;;;;;;20.05;10.78;;;;;;;12.16;66.53;100556.08;1793294;80;26082;-48
2023/01/02 10:48:12;;;;;;;25.70;12.82;;;;;;;12.04;66.83;100548.53;1761862;81;25442;-47
2023/01/02 10:50:49;;;;;;;23.75;11.80;;;;;;;11.91;67.27;100545.36;1773240;80;27517;-48
2023/01/02 10:53:35;;;;;;;19.45;12.75;;;;;;;11.81;67.57;100541.53;1761724;81;25542;-47
2023/01/02 10:56:19;;;;;;;20.77;11.40;;;;;;;11.69;67.99;100541.53;1793230;80;25444;-48
2023/01/02 10:58:49;;;;;;;64.95;59.40;;;;;;;11.56;68.14;100535.10;1761840;81;26141;-47
2023/01/02 11:01:22;;;;;;;85.22;78.45;;;;;;;11.45;68.63;100531.03;1793219;80;25582;-48
2023/01/02 11:03:57;;;;;;;84.30;77.58;;;;;;;11.38;68.82;100527.97;1761876;81;28396;-52
2023/01/02 11:06:30;;;;;;;86.53;79.60;;;;;;;11.32;68.99;100529.19;1790619;80;25496;-51
2023/01/02 11:09:01;;;;;;;80.60;74.22;;;;;;;11.26;69.12;100520.96;1761840;81;25560;-48
2023/01/02 11:11:31;;;;;;;81.92;75.35;;;;;;;11.13;69.41;100501.73;1773228;80;25698;-48
2023/01/02 11:14:10;;;;;;;83.75;76.85;;;;;;;11.17;69.58;100516.27;1761830;81;25600;-48
2023/01/02 11:16:38;;;;;;;88.60;81.02;;;;;;;11.15;69.71;100519.85;1793318;80;28099;-49
2023/01/02 11:19:09;;;;;;;73.40;66.35;;;;;;;11.13;69.97;100513.92;1761799;81;25438;-49
2023/01/02 11:21:42;;;;;;;18.65;10.48;;;;;;;11.12;70.11;100520.45;1770679;80;25457;-50
2023/01/02 11:24:21;;;;;;;21.57;11.18;;;;;;;11.11;70.11;100514.78;1756088;80;25536;-50
2023/01/02 11:26:49;;;;;;;21.95;11.25;;;;;;;11.06;70.20;100505.43;1776727;80;25563;-48
2023/01/02 11:29:31;;;;;;;22.27;11.75;;;;;;;11.03;70.38;100491.15;1776536;80;27513;-49
2023/01/02 11:32:01;;;;;;;21.35;10.85;;;;;;;11.00;70.50;100483.11;1756218;81;25523;-50
2023/01/02 11:34:33;;;;;;;28.80;13.53;;;;;;;10.98;70.68;100498.03;1776424;80;25476;-50
2023/01/02 11:37:14;;;;;;;20.40;10.88;;;;;;;10.97;70.89;100521.61;1774821;80;25543;-49
2023/01/02 11:39:42;;;;;;;22.85;11.12;;;;;;;10.98;71.07;100529.16;1776428;80;25547;-50
2023/01/02 11:45:14;;;;;;;23.07;11.50;;;;;;;11.03;71.11;100521.75;1776326;80;25448;-49
2023/01/02 11:47:55;;;;;;;23.12;10.88;;;;;;;11.09;70.97;100511.59;1776442;80;25551;-49